sensor_id;sensor_type;location;lat;lon;timestamp;pressure;altitude;pressure_sealevel;temperature;humidity
72486;BME280;60509;47.308;-122.428;2023-01-19T00:01:41;100356.93;;;-0.71;51.67
72486;BME280;60509;47.308;-122.428;2023-01-19T00:04:06;100357.31;;;0.26;51.71
72486;BME280;60509;47.308;-122.428;2023-01-19T00:06:32;100357.79;;;0.38;50.22
72486;BME280;60509;47.308;-122.428;2023-01-19T00:08:57;100360.65;;;-0.15;49.94
72486;BME280;60509;47.308;-122.428;2023-01-19T00:11:23;100360.65;;;-0.49;49.85
72486;BME280;60509;47.308;-122.428;2023-01-19T00:13:49;100366.44;;;-0.05;50.00
72486;BME280;60509;47.308;-122.428;2023-01-19T00:16:14;100369.81;;;-0.10;49.51
72486;BME280;60509;47.308;-122.428;2023-01-19T00:18:39;100375.58;;;-0.42;51.39
72486;BME280;60509;47.308;-122.428;2023-01-19T00:21:05;100385.47;;;0.11;49.56
72486;BME280;60509;47.308;-122.428;2023-01-19T00:23:30;100391.55;;;-2.81;53.49
72486;BME280;60509;47.308;-122.428;2023-01-19T00:25:56;100393.16;;;-1.46;52.56
72486;BME280;60509;47.308;-122.428;2023-01-19T00:28:21;100393.76;;;0.07;51.72
72486;BME280;60509;47.308;-122.428;2023-01-19T00:30:48;100399.37;;;-1.74;53.83
72486;BME280;60509;47.308;-122.428;2023-01-19T00:33:12;100405.69;;;-1.16;52.55
72486;BME280;60509;47.308;-122.428;2023-01-19T00:35:38;100407.09;;;-0.99;53.01
72486;BME280;60509;47.308;-122.428;2023-01-19T00:38:03;100408.12;;;-0.56;51.55
72486;BME280;60509;47.308;-122.428;2023-01-19T00:40:29;100408.73;;;1.58;49.75
72486;BME280;60509;47.308;-122.428;2023-01-19T00:42:54;100415.81;;;0.91;48.72
72486;BME280;60509;47.308;-122.428;2023-01-19T00:45:22;100420.81;;;0.55;50.40
72486;BME280;60509;47.308;-122.428;2023-01-19T00:47:46;100425.99;;;-1.52;53.39
72486;BME280;60509;47.308;-122.428;2023-01-19T00:50:13;100425.83;;;-1.43;53.08
72486;BME280;60509;47.308;-122.428;2023-01-19T00:52:36;100428.63;;;0.27;49.91
72486;BME280;60509;47.308;-122.428;2023-01-19T00:55:02;100436.04;;;-0.63;52.33
72486;BME280;60509;47.308;-122.428;2023-01-19T00:57:27;100436.86;;;-1.44;52.68
72486;BME280;60509;47.308;-122.428;2023-01-19T00:59:52;100434.00;;;-1.23;53.16
72486;BME280;60509;47.308;-122.428;2023-01-19T01:02:18;100437.49;;;-1.99;54.51
72486;BME280;60509;47.308;-122.428;2023-01-19T01:04:43;100439.95;;;-0.75;52.64
72486;BME280;60509;47.308;-122.428;2023-01-19T01:07:09;100447.26;;;-3.58;58.21
72486;BME280;60509;47.308;-122.428;2023-01-19T01:09:34;100452.86;;;-2.93;57.20
72486;BME280;60509;47.308;-122.428;2023-01-19T01:12:00;100457.67;;;-3.87;60.58
72486;BME280;60509;47.308;-122.428;2023-01-19T01:14:25;100454.87;;;-3.82;59.56
72486;BME280;60509;47.308;-122.428;2023-01-19T01:16:51;100453.34;;;-2.71;57.93
72486;BME280;60509;47.308;-122.428;2023-01-19T01:19:16;100458.47;;;-2.59;56.76
72486;BME280;60509;47.308;-122.428;2023-01-19T01:21:42;100454.58;;;-3.12;58.03
72486;BME280;60509;47.308;-122.428;2023-01-19T01:24:08;100464.21;;;-3.81;59.10
72486;BME280;60509;47.308;-122.428;2023-01-19T01:26:33;100467.45;;;-2.78;57.07
72486;BME280;60509;47.308;-122.428;2023-01-19T01:28:59;100469.39;;;-1.99;56.71
72486;BME280;60509;47.308;-122.428;2023-01-19T01:31:24;100466.21;;;-3.27;57.69
72486;BME280;60509;47.308;-122.428;2023-01-19T01:33:50;100460.52;;;-2.36;57.16
72486;BME280;60509;47.308;-122.428;2023-01-19T01:36:15;100460.71;;;-2.40;56.92
72486;BME280;60509;47.308;-122.428;2023-01-19T01:38:41;100464.46;;;-1.36;55.30
72486;BME280;60509;47.308;-122.428;2023-01-19T01:41:07;100474.73;;;-2.88;57.67
72486;BME280;60509;47.308;-122.428;2023-01-19T01:43:49;100481.18;;;-3.29;59.26
72486;BME280;60509;47.308;-122.428;2023-01-19T01:45:57;100481.48;;;-2.89;58.95
72486;BME280;60509;47.308;-122.428;2023-01-19T01:48:26;100482.50;;;-3.41;59.51
72486;BME280;60509;47.308;-122.428;2023-01-19T01:50:52;100489.79;;;-4.70;63.02
72486;BME280;60509;47.308;-122.428;2023-01-19T01:53:15;100489.81;;;-5.57;64.67
72486;BME280;60509;47.308;-122.428;2023-01-19T01:55:42;100495.07;;;-5.01;64.37
72486;BME280;60509;47.308;-122.428;2023-01-19T01:58:07;100497.89;;;-5.48;63.33
72486;BME280;60509;47.308;-122.428;2023-01-19T02:00:31;100504.67;;;-4.14;61.15
72486;BME280;60509;47.308;-122.428;2023-01-19T02:02:57;100502.82;;;-4.91;62.59
72486;BME280;60509;47.308;-122.428;2023-01-19T02:05:25;100503.52;;;-5.20;63.06
72486;BME280;60509;47.308;-122.428;2023-01-19T02:07:52;100507.42;;;-3.66;59.68
72486;BME280;60509;47.308;-122.428;2023-01-19T02:10:14;100509.97;;;-3.60;59.26
72486;BME280;60509;47.308;-122.428;2023-01-19T02:12:39;100509.15;;;-3.02;57.09
72486;BME280;60509;47.308;-122.428;2023-01-19T02:15:12;100517.68;;;-3.57;58.13
72486;BME280;60509;47.308;-122.428;2023-01-19T02:17:30;100524.48;;;-4.21;59.71
72486;BME280;60509;47.308;-122.428;2023-01-19T02:19:56;100526.27;;;-4.58;61.45
72486;BME280;60509;47.308;-122.428;2023-01-19T02:22:25;100529.12;;;-3.42;60.53
72486;BME280;60509;47.308;-122.428;2023-01-19T02:24:47;100539.86;;;-3.87;60.50
72486;BME280;60509;47.308;-122.428;2023-01-19T02:27:13;100545.32;;;-4.39;59.17
72486;BME280;60509;47.308;-122.428;2023-01-19T02:29:39;100545.66;;;-2.50;57.22
72486;BME280;60509;47.308;-122.428;2023-01-19T02:32:04;100552.94;;;-3.92;58.34
72486;BME280;60509;47.308;-122.428;2023-01-19T02:34:30;100552.68;;;-3.10;56.82
72486;BME280;60509;47.308;-122.428;2023-01-19T02:36:57;100553.59;;;-1.92;55.39
72486;BME280;60509;47.308;-122.428;2023-01-19T02:39:25;100562.65;;;-2.63;55.77
72486;BME280;60509;47.308;-122.428;2023-01-19T02:41:51;100567.15;;;-3.79;57.38
72486;BME280;60509;47.308;-122.428;2023-01-19T02:44:13;100573.85;;;-4.12;58.21
72486;BME280;60509;47.308;-122.428;2023-01-19T02:46:38;100580.38;;;-4.33;58.17
72486;BME280;60509;47.308;-122.428;2023-01-19T02:49:04;100580.44;;;-3.06;56.35
72486;BME280;60509;47.308;-122.428;2023-01-19T02:51:29;100587.06;;;-3.45;57.28
72486;BME280;60509;47.308;-122.428;2023-01-19T02:54:12;100591.24;;;-4.10;57.72
72486;BME280;60509;47.308;-122.428;2023-01-19T02:56:47;100588.05;;;-3.32;56.24
72486;BME280;60509;47.308;-122.428;2023-01-19T02:58:52;100594.10;;;-3.80;56.59
72486;BME280;60509;47.308;-122.428;2023-01-19T03:01:17;100594.76;;;-3.81;58.77
72486;BME280;60509;47.308;-122.428;2023-01-19T03:03:44;100599.67;;;-3.39;58.82
72486;BME280;60509;47.308;-122.428;2023-01-19T03:06:07;100603.18;;;-4.09;59.15
72486;BME280;60509;47.308;-122.428;2023-01-19T03:08:40;100600.14;;;-5.40;64.94
72486;BME280;60509;47.308;-122.428;2023-01-19T03:11:00;100602.11;;;-4.53;61.05
72486;BME280;60509;47.308;-122.428;2023-01-19T03:13:28;100610.42;;;-4.53;60.15
72486;BME280;60509;47.308;-122.428;2023-01-19T03:15:49;100619.99;;;-4.09;59.31
72486;BME280;60509;47.308;-122.428;2023-01-19T03:18:13;100623.31;;;-4.17;58.05
72486;BME280;60509;47.308;-122.428;2023-01-19T03:20:37;100625.88;;;-4.51;58.66
72486;BME280;60509;47.308;-122.428;2023-01-19T03:23:05;100621.68;;;-3.47;56.86
72486;BME280;60509;47.308;-122.428;2023-01-19T03:25:32;100626.07;;;-2.21;53.95
72486;BME280;60509;47.308;-122.428;2023-01-19T03:27:56;100629.72;;;-2.84;54.72
72486;BME280;60509;47.308;-122.428;2023-01-19T03:30:23;100633.77;;;-4.01;55.87
72486;BME280;60509;47.308;-122.428;2023-01-19T03:32:48;100637.12;;;-3.22;55.05
72486;BME280;60509;47.308;-122.428;2023-01-19T03:35:12;100642.05;;;-2.46;54.91
72486;BME280;60509;47.308;-122.428;2023-01-19T03:37:38;100647.19;;;-2.81;54.41
72486;BME280;60509;47.308;-122.428;2023-01-19T03:40:02;100652.51;;;-2.64;53.51
72486;BME280;60509;47.308;-122.428;2023-01-19T03:42:28;100654.49;;;-2.90;53.98
72486;BME280;60509;47.308;-122.428;2023-01-19T03:44:55;100657.82;;;-2.81;53.95
72486;BME280;60509;47.308;-122.428;2023-01-19T03:47:19;100661.11;;;-3.35;54.86
72486;BME280;60509;47.308;-122.428;2023-01-19T03:49:47;100662.10;;;-3.21;55.20
72486;BME280;60509;47.308;-122.428;2023-01-19T03:52:11;100665.83;;;-2.27;53.10
72486;BME280;60509;47.308;-122.428;2023-01-19T03:54:36;100675.93;;;-3.12;54.19
72486;BME280;60509;47.308;-122.428;2023-01-19T03:57:02;100674.71;;;-2.62;53.53
72486;BME280;60509;47.308;-122.428;2023-01-19T03:59:27;100677.53;;;-3.85;56.08
72486;BME280;60509;47.308;-122.428;2023-01-19T04:01:53;100675.91;;;-1.88;52.95
72486;BME280;60509;47.308;-122.428;2023-01-19T04:04:19;100678.02;;;-3.04;54.04
72486;BME280;60509;47.308;-122.428;2023-01-19T04:06:44;100682.34;;;-5.18;57.55
72486;BME280;60509;47.308;-122.428;2023-01-19T04:09:10;100690.85;;;-4.26;57.54
72486;BME280;60509;47.308;-122.428;2023-01-19T04:11:36;100692.17;;;-6.38;62.54
72486;BME280;60509;47.308;-122.428;2023-01-19T04:14:01;100695.63;;;-4.43;59.59
72486;BME280;60509;47.308;-122.428;2023-01-19T04:16:27;100700.26;;;-4.63;59.58
72486;BME280;60509;47.308;-122.428;2023-01-19T04:18:52;100701.23;;;-4.88;61.27
72486;BME280;60509;47.308;-122.428;2023-01-19T04:21:18;100710.52;;;-7.42;65.10
72486;BME280;60509;47.308;-122.428;2023-01-19T04:23:44;100708.08;;;-6.16;65.51
72486;BME280;60509;47.308;-122.428;2023-01-19T04:26:10;100712.25;;;-7.03;68.52
72486;BME280;60509;47.308;-122.428;2023-01-19T04:28:36;100707.02;;;-6.39;65.48
72486;BME280;60509;47.308;-122.428;2023-01-19T04:31:01;100707.04;;;-7.71;70.52
72486;BME280;60509;47.308;-122.428;2023-01-19T04:33:27;100716.52;;;-6.84;69.11
72486;BME280;60509;47.308;-122.428;2023-01-19T04:35:53;100718.51;;;-6.43;68.74
72486;BME280;60509;47.308;-122.428;2023-01-19T04:38:19;100723.70;;;-5.64;65.24
72486;BME280;60509;47.308;-122.428;2023-01-19T04:40:44;100734.65;;;-6.20;66.58
72486;BME280;60509;47.308;-122.428;2023-01-19T04:43:10;100729.09;;;-4.35;59.08
72486;BME280;60509;47.308;-122.428;2023-01-19T04:45:36;100742.69;;;-4.41;58.47
72486;BME280;60509;47.308;-122.428;2023-01-19T04:48:01;100745.22;;;-3.45;56.35
72486;BME280;60509;47.308;-122.428;2023-01-19T04:50:27;100756.35;;;-4.14;57.02
72486;BME280;60509;47.308;-122.428;2023-01-19T04:52:52;100760.15;;;-3.16;53.94
72486;BME280;60509;47.308;-122.428;2023-01-19T04:55:18;100758.80;;;-4.57;54.94
72486;BME280;60509;47.308;-122.428;2023-01-19T04:57:44;100760.23;;;-3.40;54.58
72486;BME280;60509;47.308;-122.428;2023-01-19T05:00:10;100768.41;;;-2.64;53.03
72486;BME280;60509;47.308;-122.428;2023-01-19T05:02:35;100771.45;;;-1.66;51.97
72486;BME280;60509;47.308;-122.428;2023-01-19T05:05:01;100773.06;;;-2.30;52.23
72486;BME280;60509;47.308;-122.428;2023-01-19T05:07:26;100776.01;;;-2.16;51.86
72486;BME280;60509;47.308;-122.428;2023-01-19T05:09:52;100770.78;;;-1.29;49.66
72486;BME280;60509;47.308;-122.428;2023-01-19T05:12:18;100773.77;;;-2.00;51.48
72486;BME280;60509;47.308;-122.428;2023-01-19T05:14:43;100772.66;;;-0.87;50.91
72486;BME280;60509;47.308;-122.428;2023-01-19T05:17:09;100778.44;;;-2.22;51.57
72486;BME280;60509;47.308;-122.428;2023-01-19T05:19:35;100778.69;;;-1.86;51.45
72486;BME280;60509;47.308;-122.428;2023-01-19T05:22:01;100778.85;;;-0.58;49.31
72486;BME280;60509;47.308;-122.428;2023-01-19T05:24:26;100782.16;;;-1.16;50.23
72486;BME280;60509;47.308;-122.428;2023-01-19T05:26:51;100790.44;;;-1.87;52.00
72486;BME280;60509;47.308;-122.428;2023-01-19T05:29:17;100792.23;;;-2.42;52.33
72486;BME280;60509;47.308;-122.428;2023-01-19T05:31:42;100799.11;;;-1.89;51.75
72486;BME280;60509;47.308;-122.428;2023-01-19T05:34:10;100804.02;;;-1.03;50.24
72486;BME280;60509;47.308;-122.428;2023-01-19T05:36:34;100813.57;;;-0.84;49.99
72486;BME280;60509;47.308;-122.428;2023-01-19T05:39:00;100818.43;;;-2.58;52.72
72486;BME280;60509;47.308;-122.428;2023-01-19T05:41:25;100821.11;;;-1.52;51.05
72486;BME280;60509;47.308;-122.428;2023-01-19T05:43:51;100827.38;;;-1.50;50.83
72486;BME280;60509;47.308;-122.428;2023-01-19T05:46:16;100832.69;;;-1.64;50.29
72486;BME280;60509;47.308;-122.428;2023-01-19T05:48:42;100836.49;;;-3.90;55.34
72486;BME280;60509;47.308;-122.428;2023-01-19T05:51:08;100843.60;;;-2.59;52.54
72486;BME280;60509;47.308;-122.428;2023-01-19T05:53:33;100848.39;;;-1.96;52.45
72486;BME280;60509;47.308;-122.428;2023-01-19T05:56:00;100847.77;;;-3.49;53.19
72486;BME280;60509;47.308;-122.428;2023-01-19T05:58:25;100851.47;;;-2.69;52.15
72486;BME280;60509;47.308;-122.428;2023-01-19T06:00:50;100859.24;;;-2.82;52.61
72486;BME280;60509;47.308;-122.428;2023-01-19T06:03:16;100865.73;;;-3.17;52.93
72486;BME280;60509;47.308;-122.428;2023-01-19T06:05:42;100871.46;;;-1.45;49.99
72486;BME280;60509;47.308;-122.428;2023-01-19T06:08:07;100868.82;;;-1.40;50.18
72486;BME280;60509;47.308;-122.428;2023-01-19T06:10:33;100876.55;;;-2.47;54.01
72486;BME280;60509;47.308;-122.428;2023-01-19T06:12:59;100879.71;;;-1.91;52.78
72486;BME280;60509;47.308;-122.428;2023-01-19T06:15:24;100890.91;;;-0.90;49.46
72486;BME280;60509;47.308;-122.428;2023-01-19T06:17:50;100896.34;;;-1.10;49.57
72486;BME280;60509;47.308;-122.428;2023-01-19T06:20:16;100902.82;;;-1.09;49.04
72486;BME280;60509;47.308;-122.428;2023-01-19T06:22:41;100907.86;;;-1.18;49.70
72486;BME280;60509;47.308;-122.428;2023-01-19T06:25:07;100911.43;;;-0.05;48.55
72486;BME280;60509;47.308;-122.428;2023-01-19T06:27:32;100913.31;;;-2.48;52.94
72486;BME280;60509;47.308;-122.428;2023-01-19T06:29:58;100915.09;;;-1.00;49.67
72486;BME280;60509;47.308;-122.428;2023-01-19T06:32:24;100919.43;;;-2.03;51.20
72486;BME280;60509;47.308;-122.428;2023-01-19T06:34:49;100925.06;;;-0.82;50.87
72486;BME280;60509;47.308;-122.428;2023-01-19T06:37:15;100931.17;;;-2.30;52.29
72486;BME280;60509;47.308;-122.428;2023-01-19T06:39:41;100933.06;;;-1.61;50.25
72486;BME280;60509;47.308;-122.428;2023-01-19T06:42:06;100940.24;;;-2.20;51.21
72486;BME280;60509;47.308;-122.428;2023-01-19T06:44:32;100943.85;;;-2.67;53.56
72486;BME280;60509;47.308;-122.428;2023-01-19T06:46:57;100943.45;;;-2.24;51.75
72486;BME280;60509;47.308;-122.428;2023-01-19T06:49:23;100942.14;;;-1.40;51.60
72486;BME280;60509;47.308;-122.428;2023-01-19T06:51:49;100947.78;;;-2.67;52.69
72486;BME280;60509;47.308;-122.428;2023-01-19T06:54:14;100947.93;;;-3.79;53.75
72486;BME280;60509;47.308;-122.428;2023-01-19T06:56:40;100954.41;;;-1.92;51.14
72486;BME280;60509;47.308;-122.428;2023-01-19T06:59:06;100953.81;;;-2.92;52.68
72486;BME280;60509;47.308;-122.428;2023-01-19T07:01:31;100963.30;;;-3.20;52.95
72486;BME280;60509;47.308;-122.428;2023-01-19T07:03:57;100965.86;;;-2.80;52.24
72486;BME280;60509;47.308;-122.428;2023-01-19T07:06:23;100966.85;;;-1.98;51.24
72486;BME280;60509;47.308;-122.428;2023-01-19T07:08:48;100970.77;;;-1.84;50.78
72486;BME280;60509;47.308;-122.428;2023-01-19T07:11:14;100975.45;;;-2.06;50.48
72486;BME280;60509;47.308;-122.428;2023-01-19T07:13:40;100976.44;;;-1.91;50.39
72486;BME280;60509;47.308;-122.428;2023-01-19T07:16:07;100977.60;;;-1.63;49.61
72486;BME280;60509;47.308;-122.428;2023-01-19T07:18:31;100979.15;;;-2.07;51.38
72486;BME280;60509;47.308;-122.428;2023-01-19T07:20:57;100979.78;;;-1.81;50.95
72486;BME280;60509;47.308;-122.428;2023-01-19T07:23:22;100984.82;;;-1.89;50.03
72486;BME280;60509;47.308;-122.428;2023-01-19T07:25:48;100983.92;;;-1.25;50.25
72486;BME280;60509;47.308;-122.428;2023-01-19T07:28:14;100988.06;;;-2.87;52.40
72486;BME280;60509;47.308;-122.428;2023-01-19T07:30:39;100992.80;;;-1.49;50.70
72486;BME280;60509;47.308;-122.428;2023-01-19T07:33:05;100996.31;;;-2.04;51.15
72486;BME280;60509;47.308;-122.428;2023-01-19T07:35:31;100997.56;;;-2.23;52.46
72486;BME280;60509;47.308;-122.428;2023-01-19T07:37:57;101001.54;;;-1.87;50.50
72486;BME280;60509;47.308;-122.428;2023-01-19T07:40:22;101004.46;;;-1.81;51.89
72486;BME280;60509;47.308;-122.428;2023-01-19T07:42:48;101003.55;;;-1.92;50.88
72486;BME280;60509;47.308;-122.428;2023-01-19T07:45:14;101011.11;;;-3.48;54.60
72486;BME280;60509;47.308;-122.428;2023-01-19T07:47:41;101011.43;;;-2.42;50.77
72486;BME280;60509;47.308;-122.428;2023-01-19T07:50:06;101010.55;;;-2.42;52.48
72486;BME280;60509;47.308;-122.428;2023-01-19T07:52:31;101012.37;;;-2.73;51.66
72486;BME280;60509;47.308;-122.428;2023-01-19T07:54:56;101012.79;;;-2.86;51.99
72486;BME280;60509;47.308;-122.428;2023-01-19T07:57:22;101016.32;;;-1.96;50.46
72486;BME280;60509;47.308;-122.428;2023-01-19T07:59:48;101018.27;;;-2.74;51.86
72486;BME280;60509;47.308;-122.428;2023-01-19T08:02:13;101023.78;;;-3.14;52.42
72486;BME280;60509;47.308;-122.428;2023-01-19T08:04:39;101028.05;;;-4.11;53.75
72486;BME280;60509;47.308;-122.428;2023-01-19T08:07:05;101032.59;;;-4.37;54.59
72486;BME280;60509;47.308;-122.428;2023-01-19T08:09:31;101035.17;;;-4.55;56.44
72486;BME280;60509;47.308;-122.428;2023-01-19T08:11:56;101036.24;;;-3.00;53.40
72486;BME280;60509;47.308;-122.428;2023-01-19T08:14:22;101035.35;;;-2.38;52.11
72486;BME280;60509;47.308;-122.428;2023-01-19T08:16:48;101040.50;;;-2.90;53.79
72486;BME280;60509;47.308;-122.428;2023-01-19T08:19:13;101050.19;;;-3.71;53.95
72486;BME280;60509;47.308;-122.428;2023-01-19T08:21:39;101049.58;;;-2.82;52.44
72486;BME280;60509;47.308;-122.428;2023-01-19T08:24:05;101048.78;;;-2.84;52.18
72486;BME280;60509;47.308;-122.428;2023-01-19T08:26:32;101057.65;;;-3.21;52.65
72486;BME280;60509;47.308;-122.428;2023-01-19T08:28:58;101057.56;;;-2.16;52.22
72486;BME280;60509;47.308;-122.428;2023-01-19T08:31:22;101057.60;;;-2.28;50.79
72486;BME280;60509;47.308;-122.428;2023-01-19T08:33:48;101065.14;;;-2.26;52.00
72486;BME280;60509;47.308;-122.428;2023-01-19T08:36:13;101070.69;;;-3.21;53.08
72486;BME280;60509;47.308;-122.428;2023-01-19T08:38:39;101080.67;;;-3.58;52.66
72486;BME280;60509;47.308;-122.428;2023-01-19T08:41:05;101084.49;;;-3.72;53.35
72486;BME280;60509;47.308;-122.428;2023-01-19T08:43:30;101095.02;;;-4.32;52.70
72486;BME280;60509;47.308;-122.428;2023-01-19T08:45:56;101100.12;;;-4.15;53.91
72486;BME280;60509;47.308;-122.428;2023-01-19T08:48:22;101097.20;;;-3.30;51.17
72486;BME280;60509;47.308;-122.428;2023-01-19T08:50:49;101097.11;;;-3.09;51.42
72486;BME280;60509;47.308;-122.428;2023-01-19T08:53:14;101100.88;;;-3.77;52.35
72486;BME280;60509;47.308;-122.428;2023-01-19T08:55:39;101105.10;;;-3.92;52.43
72486;BME280;60509;47.308;-122.428;2023-01-19T08:58:05;101112.23;;;-3.16;51.93
72486;BME280;60509;47.308;-122.428;2023-01-19T09:00:31;101116.95;;;-2.23;50.48
72486;BME280;60509;47.308;-122.428;2023-01-19T09:02:56;101120.57;;;-2.00;49.25
72486;BME280;60509;47.308;-122.428;2023-01-19T09:05:21;101124.55;;;-2.20;50.57
72486;BME280;60509;47.308;-122.428;2023-01-19T09:07:47;101127.72;;;-2.06;49.75
72486;BME280;60509;47.308;-122.428;2023-01-19T09:10:13;101127.68;;;-1.04;48.84
72486;BME280;60509;47.308;-122.428;2023-01-19T09:12:38;101128.71;;;-2.09;49.96
72486;BME280;60509;47.308;-122.428;2023-01-19T09:15:05;101135.21;;;-3.73;51.39
72486;BME280;60509;47.308;-122.428;2023-01-19T09:17:29;101134.05;;;-2.39;50.40
72486;BME280;60509;47.308;-122.428;2023-01-19T09:19:55;101140.23;;;-3.72;52.76
72486;BME280;60509;47.308;-122.428;2023-01-19T09:22:21;101141.52;;;-3.81;52.43
72486;BME280;60509;47.308;-122.428;2023-01-19T09:24:46;101145.20;;;-3.61;52.81
72486;BME280;60509;47.308;-122.428;2023-01-19T09:27:12;101155.37;;;-4.60;53.22
72486;BME280;60509;47.308;-122.428;2023-01-19T09:29:38;101154.54;;;-3.40;51.67
72486;BME280;60509;47.308;-122.428;2023-01-19T09:32:04;101162.33;;;-3.76;51.68
72486;BME280;60509;47.308;-122.428;2023-01-19T09:34:29;101168.50;;;-2.68;51.90
72486;BME280;60509;47.308;-122.428;2023-01-19T09:36:55;101176.35;;;-2.82;51.20
72486;BME280;60509;47.308;-122.428;2023-01-19T09:39:20;101179.93;;;-4.00;52.37
72486;BME280;60509;47.308;-122.428;2023-01-19T09:41:50;101174.57;;;-3.59;51.48
72486;BME280;60509;47.308;-122.428;2023-01-19T09:44:18;101172.39;;;-3.67;51.50
72486;BME280;60509;47.308;-122.428;2023-01-19T09:46:39;101179.17;;;-4.19;52.15
72486;BME280;60509;47.308;-122.428;2023-01-19T09:49:06;101179.80;;;-3.40;51.24
72486;BME280;60509;47.308;-122.428;2023-01-19T09:51:32;101192.09;;;-2.91;52.03
72486;BME280;60509;47.308;-122.428;2023-01-19T09:54:01;101197.06;;;-4.31;53.97
72486;BME280;60509;47.308;-122.428;2023-01-19T09:56:20;101200.61;;;-4.53;55.21
72486;BME280;60509;47.308;-122.428;2023-01-19T09:58:47;101204.24;;;-4.06;53.04
72486;BME280;60509;47.308;-122.428;2023-01-19T10:01:25;101212.32;;;-4.40;52.80
72486;BME280;60509;47.308;-122.428;2023-01-19T10:03:41;101216.87;;;-4.32;52.38
72486;BME280;60509;47.308;-122.428;2023-01-19T10:06:04;101223.50;;;-4.82;54.07
72486;BME280;60509;47.308;-122.428;2023-01-19T10:08:33;101225.78;;;-2.71;51.91
72486;BME280;60509;47.308;-122.428;2023-01-19T10:10:55;101225.65;;;-1.61;49.07
72486;BME280;60509;47.308;-122.428;2023-01-19T10:13:27;101228.36;;;-2.30;49.84
72486;BME280;60509;47.308;-122.428;2023-01-19T10:15:54;101233.10;;;-2.87;50.84
72486;BME280;60509;47.308;-122.428;2023-01-19T10:18:16;101237.25;;;-3.61;50.92
72486;BME280;60509;47.308;-122.428;2023-01-19T10:20:39;101236.81;;;-1.82;50.04
72486;BME280;60509;47.308;-122.428;2023-01-19T10:23:05;101244.84;;;-3.06;50.82
72486;BME280;60509;47.308;-122.428;2023-01-19T10:25:27;101249.54;;;-2.36;49.85
72486;BME280;60509;47.308;-122.428;2023-01-19T10:27:53;101255.72;;;-4.20;51.27
72486;BME280;60509;47.308;-122.428;2023-01-19T10:30:22;101257.87;;;-1.97;50.14
72486;BME280;60509;47.308;-122.428;2023-01-19T10:32:44;101258.56;;;-2.54;50.18
72486;BME280;60509;47.308;-122.428;2023-01-19T10:35:15;101263.21;;;-2.53;49.48
72486;BME280;60509;47.308;-122.428;2023-01-19T10:37:37;101267.98;;;-3.03;50.68
72486;BME280;60509;47.308;-122.428;2023-01-19T10:40:16;101270.53;;;-4.30;52.17
72486;BME280;60509;47.308;-122.428;2023-01-19T10:42:28;101271.75;;;-3.84;49.84
72486;BME280;60509;47.308;-122.428;2023-01-19T10:44:53;101270.86;;;-0.58;49.00
72486;BME280;60509;47.308;-122.428;2023-01-19T10:47:20;101274.47;;;-2.65;51.52
72486;BME280;60509;47.308;-122.428;2023-01-19T10:49:44;101277.93;;;-1.75;49.09
72486;BME280;60509;47.308;-122.428;2023-01-19T10:52:19;101282.15;;;-1.91;49.92
72486;BME280;60509;47.308;-122.428;2023-01-19T10:54:36;101286.71;;;-1.89;50.47
72486;BME280;60509;47.308;-122.428;2023-01-19T10:57:03;101292.27;;;-3.61;50.40
72486;BME280;60509;47.308;-122.428;2023-01-19T10:59:32;101289.13;;;-2.15;48.97
72486;BME280;60509;47.308;-122.428;2023-01-19T11:02:10;101288.40;;;-2.49;48.47
72486;BME280;60509;47.308;-122.428;2023-01-19T11:04:21;101294.54;;;-3.42;50.21
72486;BME280;60509;47.308;-122.428;2023-01-19T11:06:43;101297.68;;;-3.20;51.10
72486;BME280;60509;47.308;-122.428;2023-01-19T11:09:14;101300.91;;;-3.94;50.71
72486;BME280;60509;47.308;-122.428;2023-01-19T11:11:41;101298.03;;;-3.33;51.33
72486;BME280;60509;47.308;-122.428;2023-01-19T11:14:06;101293.31;;;-1.53;48.79
72486;BME280;60509;47.308;-122.428;2023-01-19T11:16:27;101300.24;;;-2.41;50.52
72486;BME280;60509;47.308;-122.428;2023-01-19T11:18:52;101308.39;;;-0.54;47.93
72486;BME280;60509;47.308;-122.428;2023-01-19T11:21:17;101320.82;;;-3.55;51.38
72486;BME280;60509;47.308;-122.428;2023-01-19T11:23:46;101323.15;;;-3.20;51.23
72486;BME280;60509;47.308;-122.428;2023-01-19T11:26:13;101321.84;;;-3.17;50.47
72486;BME280;60509;47.308;-122.428;2023-01-19T11:28:36;101317.03;;;-3.00;49.21
72486;BME280;60509;47.308;-122.428;2023-01-19T11:31:01;101324.78;;;-3.61;50.53
72486;BME280;60509;47.308;-122.428;2023-01-19T11:33:32;101329.40;;;-3.59;51.83
72486;BME280;60509;47.308;-122.428;2023-01-19T11:36:02;101325.96;;;-2.60;48.95
72486;BME280;60509;47.308;-122.428;2023-01-19T11:38:19;101329.19;;;-3.45;50.22
72486;BME280;60509;47.308;-122.428;2023-01-19T11:40:49;101329.82;;;-2.94;49.45
72486;BME280;60509;47.308;-122.428;2023-01-19T11:43:10;101333.19;;;-2.80;49.47
72486;BME280;60509;47.308;-122.428;2023-01-19T11:45:34;101337.34;;;-3.29;50.51
72486;BME280;60509;47.308;-122.428;2023-01-19T11:48:02;101333.82;;;-3.42;51.68
72486;BME280;60509;47.308;-122.428;2023-01-19T11:50:28;101329.16;;;-2.63;49.62
72486;BME280;60509;47.308;-122.428;2023-01-19T11:52:56;101331.07;;;-1.87;50.72
72486;BME280;60509;47.308;-122.428;2023-01-19T11:55:21;101343.35;;;-3.05;49.29
72486;BME280;60509;47.308;-122.428;2023-01-19T11:57:44;101337.13;;;-0.39;47.96
72486;BME280;60509;47.308;-122.428;2023-01-19T12:00:22;101339.94;;;-1.69;48.88
72486;BME280;60509;47.308;-122.428;2023-01-19T12:02:41;101340.89;;;-2.33;49.00
72486;BME280;60509;47.308;-122.428;2023-01-19T12:05:03;101349.26;;;-2.76;49.43
72486;BME280;60509;47.308;-122.428;2023-01-19T12:07:28;101358.19;;;-1.81;51.75
72486;BME280;60509;47.308;-122.428;2023-01-19T12:09:52;101363.37;;;-2.39;48.83
72486;BME280;60509;47.308;-122.428;2023-01-19T12:12:26;101366.39;;;-2.15;50.00